sensor_id;sensor_type;location;lat;lon;timestamp;pressure;altitude;pressure_sealevel;temperature;humidity
36598;BME280;22607;49.550;11.940;2023-04-15T00:00:57;95746.44;;;7.11;100.00
36598;BME280;22607;49.550;11.940;2023-04-15T00:03:25;95740.03;;;7.13;100.00
36598;BME280;22607;49.550;11.940;2023-04-15T00:05:55;95735.97;;;7.11;100.00
36598;BME280;22607;49.550;11.940;2023-04-15T00:08:21;95726.31;;;6.96;100.00
36598;BME280;22607;49.550;11.940;2023-04-15T00:10:48;95727.44;;;7.02;100.00
36598;BME280;22607;49.550;11.940;2023-04-15T00:13:16;95728.59;;;6.99;100.00
36598;BME280;22607;49.550;11.940;2023-04-15T00:15:42;95727.25;;;7.03;100.00
36598;BME280;22607;49.550;11.940;2023-04-15T00:18:08;95729.50;;;7.06;100.00
36598;BME280;22607;49.550;11.940;2023-04-15T00:20:35;95719.53;;;7.10;100.00
36598;BME280;22607;49.550;11.940;2023-04-15T00:23:02;95724.28;;;7.06;100.00
36598;BME280;22607;49.550;11.940;2023-04-15T00:25:29;95720.69;;;7.07;100.00
36598;BME280;22607;49.550;11.940;2023-04-15T00:27:56;95718.16;;;6.99;100.00
36598;BME280;22607;49.550;11.940;2023-04-15T00:30:23;95725.53;;;7.11;100.00
36598;BME280;22607;49.550;11.940;2023-04-15T00:32:51;95715.28;;;7.09;100.00
36598;BME280;22607;49.550;11.940;2023-04-15T00:35:17;95713.38;;;7.03;100.00
36598;BME280;22607;49.550;11.940;2023-04-15T00:37:44;95705.03;;;7.07;100.00
36598;BME280;22607;49.550;11.940;2023-04-15T00:40:12;95704.56;;;7.04;100.00
36598;BME280;22607;49.550;11.940;2023-04-15T00:42:39;95704.94;;;7.16;100.00
36598;BME280;22607;49.550;11.940;2023-04-15T00:45:05;95704.72;;;7.02;100.00
36598;BME280;22607;49.550;11.940;2023-04-15T00:47:32;95695.44;;;7.00;100.00
36598;BME280;22607;49.550;11.940;2023-04-15T00:49:59;95697.06;;;6.86;100.00
36598;BME280;22607;49.550;11.940;2023-04-15T00:52:25;95697.34;;;6.91;100.00
36598;BME280;22607;49.550;11.940;2023-04-15T00:54:52;95700.28;;;6.88;100.00
36598;BME280;22607;49.550;11.940;2023-04-15T00:57:20;95698.31;;;6.90;100.00
36598;BME280;22607;49.550;11.940;2023-04-15T00:59:47;95691.91;;;6.77;100.00
36598;BME280;22607;49.550;11.940;2023-04-15T01:02:16;95694.97;;;6.81;100.00
36598;BME280;22607;49.550;11.940;2023-04-15T01:04:43;95687.34;;;6.79;100.00
36598;BME280;22607;49.550;11.940;2023-04-15T01:07:10;95683.00;;;6.87;100.00
36598;BME280;22607;49.550;11.940;2023-04-15T01:09:36;95688.41;;;6.85;100.00
36598;BME280;22607;49.550;11.940;2023-04-15T01:12:03;95691.00;;;6.85;100.00
36598;BME280;22607;49.550;11.940;2023-04-15T01:14:30;95682.56;;;6.83;100.00
36598;BME280;22607;49.550;11.940;2023-04-15T01:16:58;95678.34;;;6.97;100.00
36598;BME280;22607;49.550;11.940;2023-04-15T01:19:24;95684.53;;;6.81;100.00
36598;BME280;22607;49.550;11.940;2023-04-15T01:21:51;95679.31;;;6.81;100.00
36598;BME280;22607;49.550;11.940;2023-04-15T01:24:17;95679.50;;;6.79;100.00
36598;BME280;22607;49.550;11.940;2023-04-15T01:26:44;95677.69;;;6.80;100.00
36598;BME280;22607;49.550;11.940;2023-04-15T01:29:13;95666.53;;;6.86;100.00
36598;BME280;22607;49.550;11.940;2023-04-15T01:31:43;95670.31;;;6.83;100.00
36598;BME280;22607;49.550;11.940;2023-04-15T01:34:14;95663.13;;;6.86;100.00
36598;BME280;22607;49.550;11.940;2023-04-15T01:36:40;95658.00;;;6.92;100.00
36598;BME280;22607;49.550;11.940;2023-04-15T01:39:07;95660.06;;;6.97;100.00
36598;BME280;22607;49.550;11.940;2023-04-15T01:41:33;95655.56;;;6.91;100.00
36598;BME280;22607;49.550;11.940;2023-04-15T01:44:00;95663.75;;;6.88;100.00
36598;BME280;22607;49.550;11.940;2023-04-15T01:46:27;95671.84;;;6.93;100.00
36598;BME280;22607;49.550;11.940;2023-04-15T01:48:53;95664.91;;;6.85;100.00
36598;BME280;22607;49.550;11.940;2023-04-15T01:51:19;95674.34;;;6.71;100.00
36598;BME280;22607;49.550;11.940;2023-04-15T01:53:47;95668.06;;;6.80;100.00
36598;BME280;22607;49.550;11.940;2023-04-15T01:56:13;95670.41;;;6.75;100.00
36598;BME280;22607;49.550;11.940;2023-04-15T01:58:42;95672.81;;;6.77;100.00
36598;BME280;22607;49.550;11.940;2023-04-15T02:01:08;95667.06;;;6.81;100.00
36598;BME280;22607;49.550;11.940;2023-04-15T02:03:35;95661.56;;;6.76;100.00
36598;BME280;22607;49.550;11.940;2023-04-15T02:06:04;95666.63;;;6.78;100.00
36598;BME280;22607;49.550;11.940;2023-04-15T02:08:31;95663.47;;;6.82;100.00
36598;BME280;22607;49.550;11.940;2023-04-15T02:10:57;95657.63;;;6.80;100.00
36598;BME280;22607;49.550;11.940;2023-04-15T02:13:24;95657.88;;;6.70;100.00
36598;BME280;22607;49.550;11.940;2023-04-15T02:15:50;95656.69;;;6.73;100.00
36598;BME280;22607;49.550;11.940;2023-04-15T02:18:17;95658.31;;;6.74;100.00
36598;BME280;22607;49.550;11.940;2023-04-15T02:20:44;95654.84;;;6.82;100.00
36598;BME280;22607;49.550;11.940;2023-04-15T02:23:10;95653.31;;;6.88;100.00
36598;BME280;22607;49.550;11.940;2023-04-15T02:25:37;95659.59;;;6.78;100.00
36598;BME280;22607;49.550;11.940;2023-04-15T02:28:07;95652.03;;;6.83;100.00
36598;BME280;22607;49.550;11.940;2023-04-15T02:30:34;95654.84;;;6.82;100.00
36598;BME280;22607;49.550;11.940;2023-04-15T02:33:00;95660.41;;;6.79;100.00
36598;BME280;22607;49.550;11.940;2023-04-15T02:35:34;95655.63;;;6.82;100.00
36598;BME280;22607;49.550;11.940;2023-04-15T02:38:03;95650.41;;;6.82;100.00
36598;BME280;22607;49.550;11.940;2023-04-15T02:40:29;95650.06;;;6.86;100.00
36598;BME280;22607;49.550;11.940;2023-04-15T02:42:58;95653.31;;;6.88;100.00
36598;BME280;22607;49.550;11.940;2023-04-15T02:45:25;95653.03;;;6.82;100.00
36598;BME280;22607;49.550;11.940;2023-04-15T02:47:53;95651.41;;;6.81;100.00
36598;BME280;22607;49.550;11.940;2023-04-15T02:50:20;95642.31;;;6.77;100.00
36598;BME280;22607;49.550;11.940;2023-04-15T02:52:48;95647.81;;;6.82;100.00
36598;BME280;22607;49.550;11.940;2023-04-15T02:55:15;95647.19;;;6.80;100.00
36598;BME280;22607;49.550;11.940;2023-04-15T02:57:45;95641.25;;;6.87;100.00
36598;BME280;22607;49.550;11.940;2023-04-15T03:00:11;95642.25;;;6.86;100.00
36598;BME280;22607;49.550;11.940;2023-04-15T03:02:38;95646.47;;;6.87;100.00
36598;BME280;22607;49.550;11.940;2023-04-15T03:05:06;95656.00;;;6.79;100.00
36598;BME280;22607;49.550;11.940;2023-04-15T03:07:32;95650.31;;;6.76;100.00
36598;BME280;22607;49.550;11.940;2023-04-15T03:09:58;95648.47;;;6.85;100.00
36598;BME280;22607;49.550;11.940;2023-04-15T03:12:27;95649.97;;;6.79;100.00
36598;BME280;22607;49.550;11.940;2023-04-15T03:14:54;95648.34;;;6.78;100.00
36598;BME280;22607;49.550;11.940;2023-04-15T03:17:21;95646.91;;;6.75;100.00
36598;BME280;22607;49.550;11.940;2023-04-15T03:19:49;95647.72;;;6.76;100.00
36598;BME280;22607;49.550;11.940;2023-04-15T03:22:15;95657.97;;;6.77;100.00
36598;BME280;22607;49.550;11.940;2023-04-15T03:24:41;95649.97;;;6.79;100.00
36598;BME280;22607;49.550;11.940;2023-04-15T03:27:09;95645.28;;;6.74;100.00
36598;BME280;22607;49.550;11.940;2023-04-15T03:29:35;95655.09;;;6.72;100.00
36598;BME280;22607;49.550;11.940;2023-04-15T03:32:02;95646.72;;;6.77;100.00
36598;BME280;22607;49.550;11.940;2023-04-15T03:34:28;95645.09;;;6.76;100.00
36598;BME280;22607;49.550;11.940;2023-04-15T03:36:55;95647.53;;;6.77;100.00
36598;BME280;22607;49.550;11.940;2023-04-15T03:39:21;95643.72;;;6.65;100.00
36598;BME280;22607;49.550;11.940;2023-04-15T03:41:47;95641.22;;;6.72;100.00
36598;BME280;22607;49.550;11.940;2023-04-15T03:44:14;95639.78;;;6.69;100.00
36598;BME280;22607;49.550;11.940;2023-04-15T03:46:40;95647.88;;;6.74;100.00
36598;BME280;22607;49.550;11.940;2023-04-15T03:49:07;95640.06;;;6.74;100.00
36598;BME280;22607;49.550;11.940;2023-04-15T03:51:34;95643.66;;;6.73;100.00
36598;BME280;22607;49.550;11.940;2023-04-15T03:54:00;95644.31;;;6.75;100.00
36598;BME280;22607;49.550;11.940;2023-04-15T03:56:27;95642.22;;;6.70;100.00
36598;BME280;22607;49.550;11.940;2023-04-15T03:58:53;95642.66;;;6.74;100.00
36598;BME280;22607;49.550;11.940;2023-04-15T04:01:20;95647.44;;;6.70;100.00
36598;BME280;22607;49.550;11.940;2023-04-15T04:03:46;95656.88;;;6.56;100.00
36598;BME280;22607;49.550;11.940;2023-04-15T04:06:13;95649.09;;;6.48;100.00
36598;BME280;22607;49.550;11.940;2023-04-15T04:08:40;95652.88;;;6.61;100.00
36598;BME280;22607;49.550;11.940;2023-04-15T04:11:06;95650.66;;;6.57;100.00
36598;BME280;22607;49.550;11.940;2023-04-15T04:13:33;95652.72;;;6.62;100.00
36598;BME280;22607;49.550;11.940;2023-04-15T04:16:00;95657.75;;;6.64;100.00
36598;BME280;22607;49.550;11.940;2023-04-15T04:18:27;95655.22;;;6.55;100.00
36598;BME280;22607;49.550;11.940;2023-04-15T04:20:53;95660.09;;;6.59;100.00
36598;BME280;22607;49.550;11.940;2023-04-15T04:23:20;95665.94;;;6.61;100.00
36598;BME280;22607;49.550;11.940;2023-04-15T04:25:46;95663.31;;;6.61;100.00
36598;BME280;22607;49.550;11.940;2023-04-15T04:28:12;95661.38;;;6.63;100.00
36598;BME280;22607;49.550;11.940;2023-04-15T04:30:39;95667.75;;;6.60;100.00
36598;BME280;22607;49.550;11.940;2023-04-15T04:33:05;95674.41;;;6.63;100.00
36598;BME280;22607;49.550;11.940;2023-04-15T04:35:33;95675.03;;;6.65;100.00
36598;BME280;22607;49.550;11.940;2023-04-15T04:38:02;95679.28;;;6.66;100.00
36598;BME280;22607;49.550;11.940;2023-04-15T04:40:29;95681.78;;;6.59;100.00
36598;BME280;22607;49.550;11.940;2023-04-15T04:42:55;95687.50;;;6.54;100.00
36598;BME280;22607;49.550;11.940;2023-04-15T04:45:22;95689.41;;;6.61;100.00
36598;BME280;22607;49.550;11.940;2023-04-15T04:47:48;95684.19;;;6.61;100.00
36598;BME280;22607;49.550;11.940;2023-04-15T04:50:16;95690.94;;;6.55;100.00
36598;BME280;22607;49.550;11.940;2023-04-15T04:52:42;95695.22;;;6.48;100.00
36598;BME280;22607;49.550;11.940;2023-04-15T04:55:10;95699.75;;;6.54;100.00
36598;BME280;22607;49.550;11.940;2023-04-15T04:57:36;95701.03;;;6.35;100.00
36598;BME280;22607;49.550;11.940;2023-04-15T05:00:05;95696.44;;;6.37;100.00
36598;BME280;22607;49.550;11.940;2023-04-15T05:02:33;95705.19;;;6.44;100.00
36598;BME280;22607;49.550;11.940;2023-04-15T05:05:01;95699.81;;;6.46;100.00
36598;BME280;22607;49.550;11.940;2023-04-15T05:07:27;95700.91;;;6.51;100.00
36598;BME280;22607;49.550;11.940;2023-04-15T05:09:54;95700.56;;;6.54;100.00
36598;BME280;22607;49.550;11.940;2023-04-15T05:12:20;95705.19;;;6.44;100.00
36598;BME280;22607;49.550;11.940;2023-04-15T05:14:48;95707.63;;;6.46;100.00
36598;BME280;22607;49.550;11.940;2023-04-15T05:17:15;95702.59;;;6.44;100.00
36598;BME280;22607;49.550;11.940;2023-04-15T05:19:42;95697.03;;;6.47;100.00
36598;BME280;22607;49.550;11.940;2023-04-15T05:22:08;95703.09;;;6.63;100.00
36598;BME280;22607;49.550;11.940;2023-04-15T05:24:35;95713.41;;;6.33;100.00
36598;BME280;22607;49.550;11.940;2023-04-15T05:27:01;95715.94;;;6.26;100.00
36598;BME280;22607;49.550;11.940;2023-04-15T05:29:27;95710.34;;;6.29;100.00
36598;BME280;22607;49.550;11.940;2023-04-15T05:31:54;95704.13;;;6.30;100.00
36598;BME280;22607;49.550;11.940;2023-04-15T05:34:21;95701.03;;;6.35;100.00
36598;BME280;22607;49.550;11.940;2023-04-15T05:36:47;95709.75;;;6.19;100.00
36598;BME280;22607;49.550;11.940;2023-04-15T05:39:15;95710.50;;;6.27;100.00
36598;BME280;22607;49.550;11.940;2023-04-15T05:41:41;95705.66;;;6.24;100.00
36598;BME280;22607;49.550;11.940;2023-04-15T05:44:08;95705.88;;;6.14;100.00
36598;BME280;22607;49.550;11.940;2023-04-15T05:46:34;95712.63;;;6.32;100.00
36598;BME280;22607;49.550;11.940;2023-04-15T05:49:01;95703.28;;;6.38;100.00
36598;BME280;22607;49.550;11.940;2023-04-15T05:51:27;95705.50;;;6.49;100.00
36598;BME280;22607;49.550;11.940;2023-04-15T05:53:55;95704.22;;;6.45;100.00
36598;BME280;22607;49.550;11.940;2023-04-15T05:56:21;95710.69;;;6.49;100.00
36598;BME280;22607;49.550;11.940;2023-04-15T05:58:48;95703.22;;;6.46;100.00
36598;BME280;22607;49.550;11.940;2023-04-15T06:01:16;95708.91;;;6.50;100.00
36598;BME280;22607;49.550;11.940;2023-04-15T06:03:42;95702.34;;;6.30;100.00
36598;BME280;22607;49.550;11.940;2023-04-15T06:06:10;95706.94;;;6.28;100.00
36598;BME280;22607;49.550;11.940;2023-04-15T06:08:36;95707.91;;;6.27;100.00
36598;BME280;22607;49.550;11.940;2023-04-15T06:11:03;95702.66;;;6.36;100.00
36598;BME280;22607;49.550;11.940;2023-04-15T06:13:29;95703.34;;;6.29;100.00
36598;BME280;22607;49.550;11.940;2023-04-15T06:15:57;95710.38;;;6.21;100.00
36598;BME280;22607;49.550;11.940;2023-04-15T06:18:24;95711.38;;;6.20;100.00
36598;BME280;22607;49.550;11.940;2023-04-15T06:20:51;95708.59;;;6.21;100.00
36598;BME280;22607;49.550;11.940;2023-04-15T06:23:17;95715.84;;;6.11;100.00
36598;BME280;22607;49.550;11.940;2023-04-15T06:25:44;95711.91;;;6.15;100.00
36598;BME280;22607;49.550;11.940;2023-04-15T06:28:10;95710.25;;;6.14;100.00
36598;BME280;22607;49.550;11.940;2023-04-15T06:30:36;95718.94;;;6.06;100.00
36598;BME280;22607;49.550;11.940;2023-04-15T06:33:03;95718.88;;;6.23;100.00
36598;BME280;22607;49.550;11.940;2023-04-15T06:35:31;95725.91;;;6.14;100.00
36598;BME280;22607;49.550;11.940;2023-04-15T06:37:58;95719.66;;;6.23;100.00
36598;BME280;22607;49.550;11.940;2023-04-15T06:40:24;95716.63;;;6.11;100.00
36598;BME280;22607;49.550;11.940;2023-04-15T06:42:50;95722.28;;;6.23;100.00
36598;BME280;22607;49.550;11.940;2023-04-15T06:45:20;95720.22;;;6.10;100.00
36598;BME280;22607;49.550;11.940;2023-04-15T06:47:49;95726.25;;;6.11;100.00
36598;BME280;22607;49.550;11.940;2023-04-15T06:50:16;95718.94;;;6.06;100.00
36598;BME280;22607;49.550;11.940;2023-04-15T06:52:42;95721.00;;;6.19;100.00
36598;BME280;22607;49.550;11.940;2023-04-15T06:55:09;95724.94;;;6.15;100.00
36598;BME280;22607;49.550;11.940;2023-04-15T06:57:35;95731.13;;;6.14;100.00
36598;BME280;22607;49.550;11.940;2023-04-15T07:00:04;95732.94;;;6.13;100.00
36598;BME280;22607;49.550;11.940;2023-04-15T07:02:31;95734.72;;;6.13;100.00
36598;BME280;22607;49.550;11.940;2023-04-15T07:04:58;95730.47;;;6.20;100.00
36598;BME280;22607;49.550;11.940;2023-04-15T07:07:25;95736.34;;;6.14;100.00
36598;BME280;22607;49.550;11.940;2023-04-15T07:09:51;95740.06;;;6.20;100.00
36598;BME280;22607;49.550;11.940;2023-04-15T07:12:19;95737.41;;;6.28;100.00
36598;BME280;22607;49.550;11.940;2023-04-15T07:14:45;95742.78;;;6.26;100.00
36598;BME280;22607;49.550;11.940;2023-04-15T07:17:12;95734.50;;;6.23;100.00
36598;BME280;22607;49.550;11.940;2023-04-15T07:19:39;95739.56;;;6.24;100.00
36598;BME280;22607;49.550;11.940;2023-04-15T07:22:06;95723.56;;;6.51;100.00
36598;BME280;22607;49.550;11.940;2023-04-15T07:24:32;95725.38;;;6.50;100.00
36598;BME280;22607;49.550;11.940;2023-04-15T07:26:59;95734.19;;;6.49;100.00
36598;BME280;22607;49.550;11.940;2023-04-15T07:29:26;95736.97;;;6.48;100.00
36598;BME280;22607;49.550;11.940;2023-04-15T07:31:53;95740.34;;;6.56;100.00
36598;BME280;22607;49.550;11.940;2023-04-15T07:34:20;95737.66;;;6.65;100.00
36598;BME280;22607;49.550;11.940;2023-04-15T07:36:47;95739.28;;;6.66;100.00
36598;BME280;22607;49.550;11.940;2023-04-15T07:39:15;95739.22;;;6.74;100.00
36598;BME280;22607;49.550;11.940;2023-04-15T07:41:42;95738.94;;;6.69;100.00
36598;BME280;22607;49.550;11.940;2023-04-15T07:44:08;95744.22;;;6.84;100.00
36598;BME280;22607;49.550;11.940;2023-04-15T07:46:35;95748.19;;;6.95;100.00
36598;BME280;22607;49.550;11.940;2023-04-15T07:49:02;95747.38;;;6.94;100.00
36598;BME280;22607;49.550;11.940;2023-04-15T07:51:29;95744.94;;;6.93;100.00
36598;BME280;22607;49.550;11.940;2023-04-15T07:53:57;95742.22;;;6.86;100.00
36598;BME280;22607;49.550;11.940;2023-04-15T07:56:24;95746.59;;;6.94;100.00
36598;BME280;22607;49.550;11.940;2023-04-15T07:58:51;95746.75;;;6.92;100.00
36598;BME280;22607;49.550;11.940;2023-04-15T08:01:18;95757.03;;;6.94;100.00
36598;BME280;22607;49.550;11.940;2023-04-15T08:03:44;95761.59;;;6.92;100.00
36598;BME280;22607;49.550;11.940;2023-04-15T08:06:11;95757.38;;;6.91;100.00
36598;BME280;22607;49.550;11.940;2023-04-15T08:08:38;95763.22;;;6.93;100.00
36598;BME280;22607;49.550;11.940;2023-04-15T08:11:04;95762.47;;;6.84;100.00
36598;BME280;22607;49.550;11.940;2023-04-15T08:13:31;95761.59;;;6.92;100.00
36598;BME280;22607;49.550;11.940;2023-04-15T08:18:39;95767.91;;;6.74;100.00
36598;BME280;22607;49.550;11.940;2023-04-15T08:21:05;95759.97;;;6.91;100.00
36598;BME280;22607;49.550;11.940;2023-04-15T08:23:32;95766.75;;;7.00;100.00
36598;BME280;22607;49.550;11.940;2023-04-15T08:25:58;95766.66;;;6.93;100.00
36598;BME280;22607;49.550;11.940;2023-04-15T08:28:25;95770.38;;;6.99;100.00
36598;BME280;22607;49.550;11.940;2023-04-15T08:30:52;95766.03;;;7.06;100.00
36598;BME280;22607;49.550;11.940;2023-04-15T08:33:18;95767.91;;;6.98;100.00
36598;BME280;22607;49.550;11.940;2023-04-15T08:35:45;95774.97;;;7.12;100.00
36598;BME280;22607;49.550;11.940;2023-04-15T08:38:11;95775.81;;;7.13;100.00
36598;BME280;22607;49.550;11.940;2023-04-15T08:40:40;95777.53;;;7.20;100.00
36598;BME280;22607;49.550;11.940;2023-04-15T08:43:07;95773.53;;;7.09;100.00
36598;BME280;22607;49.550;11.940;2023-04-15T08:45:34;95765.13;;;6.99;100.00
36598;BME280;22607;49.550;11.940;2023-04-15T08:48:03;95774.75;;;6.99;100.00
36598;BME280;22607;49.550;11.940;2023-04-15T08:50:31;95771.38;;;7.13;100.00
36598;BME280;22607;49.550;11.940;2023-04-15T08:52:58;95776.69;;;7.20;100.00
36598;BME280;22607;49.550;11.940;2023-04-15T08:55:28;95777.25;;;7.15;100.00
36598;BME280;22607;49.550;11.940;2023-04-15T08:57:55;95779.69;;;7.17;100.00
36598;BME280;22607;49.550;11.940;2023-04-15T09:00:22;95788.22;;;7.11;100.00
36598;BME280;22607;49.550;11.940;2023-04-15T09:02:50;95788.25;;;7.02;100.00
36598;BME280;22607;49.550;11.940;2023-04-15T09:05:17;95784.50;;;6.81;100.00
36598;BME280;22607;49.550;11.940;2023-04-15T09:07:46;95785.47;;;7.04;100.00
36598;BME280;22607;49.550;11.940;2023-04-15T09:10:13;95788.91;;;7.04;100.00
36598;BME280;22607;49.550;11.940;2023-04-15T09:12:39;95792.25;;;7.13;100.00
36598;BME280;22607;49.550;11.940;2023-04-15T09:15:06;95786.59;;;7.09;100.00
36598;BME280;22607;49.550;11.940;2023-04-15T09:17:33;95797.03;;;7.09;100.00
36598;BME280;22607;49.550;11.940;2023-04-15T09:20:07;95796.41;;;7.07;100.00
36598;BME280;22607;49.550;11.940;2023-04-15T09:22:34;95806.44;;;7.19;100.00
36598;BME280;22607;49.550;11.940;2023-04-15T09:25:01;95798.31;;;7.14;100.00
36598;BME280;22607;49.550;11.940;2023-04-15T09:27:28;95802.03;;;7.34;100.00
36598;BME280;22607;49.550;11.940;2023-04-15T09:29:54;95815.38;;;7.40;100.00
36598;BME280;22607;49.550;11.940;2023-04-15T09:32:20;95817.09;;;7.32;100.00
36598;BME280;22607;49.550;11.940;2023-04-15T09:34:49;95810.13;;;7.25;100.00
36598;BME280;22607;49.550;11.940;2023-04-15T09:37:15;95805.09;;;7.23;100.00
36598;BME280;22607;49.550;11.940;2023-04-15T09:39:57;95811.81;;;7.17;100.00
36598;BME280;22607;49.550;11.940;2023-04-15T09:42:23;95819.53;;;7.34;100.00
36598;BME280;22607;49.550;11.940;2023-04-15T09:44:50;95823.31;;;7.46;100.00
36598;BME280;22607;49.550;11.940;2023-04-15T09:47:28;95822.53;;;7.46;100.00
36598;BME280;22607;49.550;11.940;2023-04-15T09:49:55;95820.00;;;7.53;100.00
36598;BME280;22607;49.550;11.940;2023-04-15T09:52:23;95817.13;;;7.62;100.00
36598;BME280;22607;49.550;11.940;2023-04-15T09:54:51;95819.47;;;7.57;100.00
36598;BME280;22607;49.550;11.940;2023-04-15T09:57:18;95824.13;;;7.47;100.00
36598;BME280;22607;49.550;11.940;2023-04-15T09:59:45;95820.13;;;7.59;100.00
36598;BME280;22607;49.550;11.940;2023-04-15T10:02:12;95816.75;;;7.51;100.00
36598;BME280;22607;49.550;11.940;2023-04-15T10:04:39;95816.41;;;7.54;100.00
36598;BME280;22607;49.550;11.940;2023-04-15T10:07:07;95811.47;;;7.74;100.00
36598;BME280;22607;49.550;11.940;2023-04-15T10:09:35;95811.47;;;7.74;100.00
36598;BME280;22607;49.550;11.940;2023-04-15T10:12:03;95814.72;;;7.76;100.00
36598;BME280;22607;49.550;11.940;2023-04-15T10:14:33;95819.50;;;7.87;100.00
36598;BME280;22607;49.550;11.940;2023-04-15T10:17:00;95815.44;;;7.85;100.00
36598;BME280;22607;49.550;11.940;2023-04-15T10:19:28;95816.25;;;8.00;100.00
36598;BME280;22607;49.550;11.940;2023-04-15T10:21:57;95814.09;;;8.04;100.00
36598;BME280;22607;49.550;11.940;2023-04-15T10:24:23;95817.22;;;8.14;100.00
36598;BME280;22607;49.550;11.940;2023-04-15T10:26:51;95819.41;;;7.96;100.00
36598;BME280;22607;49.550;11.940;2023-04-15T10:29:17;95816.41;;;8.29;100.00
36598;BME280;22607;49.550;11.940;2023-04-15T10:31:45;95814.50;;;8.38;100.00
36598;BME280;22607;49.550;11.940;2023-04-15T10:34:12;95822.09;;;8.18;100.00
36598;BME280;22607;49.550;11.940;2023-04-15T10:36:39;95822.63;;;8.28;100.00
36598;BME280;22607;49.550;11.940;2023-04-15T10:42:07;95822.75;;;8.05;100.00
36598;BME280;22607;49.550;11.940;2023-04-15T10:44:37;95824.81;;;8.24;100.00
36598;BME280;22607;49.550;11.940;2023-04-15T10:47:17;95826.59;;;8.24;100.00
36598;BME280;22607;49.550;11.940;2023-04-15T10:52:11;95826.59;;;8.24;100.00
36598;BME280;22607;49.550;11.940;2023-04-15T10:54:38;95827.34;;;8.18;100.00
36598;BME280;22607;49.550;11.940;2023-04-15T10:59:35;95834.81;;;8.06;100.00
36598;BME280;22607;49.550;11.940;2023-04-15T11:07:13;95847.28;;;7.88;100.00
36598;BME280;22607;49.550;11.940;2023-04-15T11:09:41;95852.31;;;7.75;100.00
36598;BME280;22607;49.550;11.940;2023-04-15T11:12:07;95851.19;;;7.69;100.00
36598;BME280;22607;49.550;11.940;2023-04-15T11:14:40;95849.06;;;7.73;100.00
36598;BME280;22607;49.550;11.940;2023-04-15T11:17:08;95849.22;;;7.86;100.00
36598;BME280;22607;49.550;11.940;2023-04-15T11:19:36;95843.38;;;7.84;100.00
36598;BME280;22607;49.550;11.940;2023-04-15T11:22:07;95841.31;;;7.95;100.00
36598;BME280;22607;49.550;11.940;2023-04-15T11:24:35;95851.31;;;7.91;100.00
36598;BME280;22607;49.550;11.940;2023-04-15T11:27:02;95859.63;;;7.95;100.00
36598;BME280;22607;49.550;11.940;2023-04-15T11:29:31;95861.78;;;7.91;100.00
36598;BME280;22607;49.550;11.940;2023-04-15T11:32:03;95862.22;;;7.95;100.00
36598;BME280;22607;49.550;11.940;2023-04-15T11:34:30;95859.25;;;7.83;100.00
36598;BME280;22607;49.550;11.940;2023-04-15T11:36:58;95862.13;;;7.88;100.00
36598;BME280;22607;49.550;11.940;2023-04-15T11:39:24;95871.41;;;7.91;100.00
36598;BME280;22607;49.550;11.940;2023-04-15T11:41:51;95870.25;;;7.93;100.00
36598;BME280;22607;49.550;11.940;2023-04-15T11:44:17;95871.69;;;7.96;100.00
36598;BME280;22607;49.550;11.940;2023-04-15T11:46:44;95862.75;;;8.05;100.00
36598;BME280;22607;49.550;11.940;2023-04-15T11:49:10;95870.25;;;8.08;100.00
36598;BME280;22607;49.550;11.940;2023-04-15T11:51:37;95867.66;;;8.08;100.00
36598;BME280;22607;49.550;11.940;2023-04-15T11:54:03;95874.16;;;8.12;100.00
36598;BME280;22607;49.550;11.940;2023-04-15T11:56:30;95870.53;;;8.13;100.00
36598;BME280;22607;49.550;11.940;2023-04-15T11:58:57;95878.94;;;8.09;100.00
36598;BME280;22607;49.550;11.940;2023-04-15T12:01:34;95874.97;;;8.13;100.00
36598;BME280;22607;49.550;11.940;2023-04-15T12:04:01;95880.72;;;8.23;100.00
36598;BME280;22607;49.550;11.940;2023-04-15T12:06:32;95888.66;;;8.15;100.00
36598;BME280;22607;49.550;11.940;2023-04-15T12:09:08;95883.53;;;8.22;100.00
36598;BME280;22607;49.550;11.940;2023-04-15T12:11:36;95885.88;;;8.17;100.00
36598;BME280;22607;49.550;11.940;2023-04-15T12:14:04;95892.09;;;8.16;100.00
36598;BME280;22607;49.550;11.940;2023-04-15T12:16:35;95886.31;;;8.20;100.00
36598;BME280;22607;49.550;11.940;2023-04-15T12:19:57;95899.56;;;8.19;100.00
36598;BME280;22607;49.550;11.940;2023-04-15T12:22:05;95898.59;;;8.20;100.00
36598;BME280;22607;49.550;11.940;2023-04-15T12:24:32;95905.63;;;8.19;100.00
36598;BME280;22607;49.550;11.940;2023-04-15T12:27:03;95894.78;;;8.37;100.00
36598;BME280;22607;49.550;11.940;2023-04-15T12:29:29;95899.41;;;8.50;100.00
36598;BME280;22607;49.550;11.940;2023-04-15T12:31:58;95907.44;;;8.64;100.00
36598;BME280;22607;49.550;11.940;2023-04-15T12:34:26;95911.59;;;8.58;100.00
36598;BME280;22607;49.550;11.940;2023-04-15T12:36:53;95905.19;;;8.61;100.00
36598;BME280;22607;49.550;11.940;2023-04-15T12:39:23;95914.47;;;8.63;100.00
36598;BME280;22607;49.550;11.940;2023-04-15T12:41:50;95917.84;;;8.57;100.00
36598;BME280;22607;49.550;11.940;2023-04-15T12:44:17;95927.66;;;8.70;100.00
36598;BME280;22607;49.550;11.940;2023-04-15T12:46:44;95925.22;;;8.69;100.00
36598;BME280;22607;49.550;11.940;2023-04-15T12:49:11;95931.97;;;8.63;100.00
36598;BME280;22607;49.550;11.940;2023-04-15T12:51:40;95930.53;;;8.60;100.00
36598;BME280;22607;49.550;11.940;2023-04-15T12:54:06;95930.53;;;8.60;100.00
36598;BME280;22607;49.550;11.940;2023-04-15T12:56:33;95939.56;;;8.58;100.00
36598;BME280;22607;49.550;11.940;2023-04-15T12:58:59;95943.72;;;8.67;100.00
36598;BME280;22607;49.550;11.940;2023-04-15T13:01:26;95948.69;;;8.62;100.00
36598;BME280;22607;49.550;11.940;2023-04-15T13:03:52;95946.97;;;8.69;100.00
36598;BME280;22607;49.550;11.940;2023-04-15T13:06:19;95955.44;;;8.71;100.00